• Join FlightAware (Why Join?)
  • Login
  • US Flag 
03:35PM EDT


 

Airport Tracker/Info


-or-


 

Live Flight TrackerFlight Track Log ✈ N137TK ✈ 30-Apr-2013 ✈ N94 - KILG

Flight Track Log - Related Links

Times and Time Zones

All times are in EDT time to prevent confusion due to time zone crossing. See the N137TK flight status page for this flight to view local times or setup timezone preferences in your user account.

Time Position Orientation Groundspeed Altitude Reporting Facility
EDT Latitude Longitude Course Direction KTS MPH feet Rate Location/Type
05:26PM 40.2056 -76.8672 118° Southeast  Level FlightAware Approximate
05:27PM 40.1802 -76.8055 118° Southeast  Level FlightAware Approximate
05:28PM 40.1549 -76.7438 118° Southeast  Level FlightAware Approximate
05:29PM 40.1295 -76.6821 118° Southeast  Level FlightAware Approximate
05:30PM 40.1040 -76.6205 118° Southeast  Level FlightAware Approximate
05:30PM 39.9833 -76.4167 119° Southeast 240 276 7,000  Level Philadelphia TRACON
05:31PM 40.0785 -76.5590 118° Southeast  Level FlightAware Approximate
05:31PM 39.9500 -76.3000 110° East 242 278 7,000  Level Philadelphia TRACON
05:32PM 40.0530 -76.4974 118° Southeast  Level FlightAware Approximate
05:32PM 39.9167 -76.2333 123° Southeast 241 277 7,000  Level Philadelphia TRACON
05:33PM 40.0275 -76.4360 119° Southeast  Level FlightAware Approximate
05:33PM 39.8833 -76.1500 118° Southeast 239 275 7,000  Level Philadelphia TRACON
05:34PM 40.0017 -76.3747 119° Southeast  Level FlightAware Approximate
05:34PM 39.8667 -76.0833 108° East 242 278 6,600  Level Philadelphia TRACON
05:35PM 39.9760 -76.3134 119° Southeast  Level FlightAware Approximate
05:35PM 39.8333 -76.0167 123° Southeast 252 290 5,700  Level Philadelphia TRACON
05:36PM 39.8000 -75.9333 117° Southeast 253 291 4,600 -1,020 Descending Philadelphia TRACON
05:37PM 39.7667 -75.8500 117° Southeast 230 265 3,700 -960 Descending Philadelphia TRACON
05:38PM 39.7333 -75.8000 131° Southeast 200 230 2,700 -1,020 Descending Philadelphia TRACON
05:39PM 39.7000 -75.7333 123° Southeast 188 216 1,600 -720 Descending Philadelphia TRACON
05:40PM 39.6833 -75.6833 113° Southeast 121 139 1,200 -480 Descending Philadelphia TRACON
05:41PM 39.6667 -75.6500 123° Southeast 107 123 700 -540 Descending Philadelphia TRACON
05:43PM 39.6667 -75.6000 128° Southeast  Level FlightAware Approximate
05:50PM 39.6787 -75.6066 128° Southeast  Level Estimated